Time;durP1;ratioP1;P1;durP2;ratioP2;P2;SDS_P1;SDS_P2;PMS_P1;PMS_P2;Temp;Humidity;BMP_temperature;BMP_pressure;BME280_temperature;BME280_humidity;BME280_pressure;Samples;Min_cycle;Max_cycle;Signal;HPM_P1;HPM_P2
2021/12/25 00:01:23;;;;;;;6.80;4.22;;;;;;;5.34;94.43;100669.53;4976659;28;96796;-42
2021/12/25 00:03:51;;;;;;;3.72;2.40;;;;;;;5.33;94.84;100667.78;4976521;28;96929;-41
2021/12/25 00:06:17;;;;;;;6.95;2.72;;;;;;;5.47;94.76;100694.91;4976160;28;101332;-41
2021/12/25 00:08:42;;;;;;;6.13;3.33;;;;;;;5.45;94.81;100690.56;4977594;28;100209;-41
2021/12/25 00:11:08;;;;;;;10.52;3.63;;;;;;;5.45;94.45;100696.78;4977981;28;96487;-41
2021/12/25 00:13:35;;;;;;;8.35;3.85;;;;;;;5.37;94.54;100680.13;4977947;28;96811;-42
2021/12/25 00:16:00;;;;;;;6.22;3.33;;;;;;;5.38;94.62;100689.94;4976048;28;101468;-41
2021/12/25 00:18:26;;;;;;;7.60;3.10;;;;;;;5.35;94.62;100687.38;4975863;28;100536;-41
2021/12/25 00:20:52;;;;;;;6.03;1.95;;;;;;;5.37;94.14;100709.69;4977278;28;96766;-41
2021/12/25 00:23:17;;;;;;;4.82;2.70;;;;;;;5.35;94.39;100698.13;4977772;28;96590;-41
2021/12/25 00:25:48;;;;;;;3.80;1.98;;;;;;;5.32;94.34;100696.44;4977284;28;98030;-42
2021/12/25 00:30:57;;;;;;;5.65;3.42;;;;;;;5.27;94.36;100681.47;4977403;28;96560;-42
2021/12/25 00:36:01;;;;;;;6.95;3.70;;;;;;;5.27;94.15;100692.22;4975704;28;97032;-42
2021/12/25 00:38:27;;;;;;;5.13;3.10;;;;;;;5.06;94.11;100673.38;4976066;28;101021;-41
2021/12/25 00:40:52;;;;;;;6.50;3.45;;;;;;;5.18;94.27;100693.47;4977591;28;96603;-42
2021/12/25 00:43:17;;;;;;;5.90;2.67;;;;;;;5.15;94.30;100690.03;4976577;28;96939;-42
2021/12/25 00:45:43;;;;;;;6.03;3.83;;;;;;;4.97;94.70;100662.16;4974470;28;97104;-42
2021/12/25 00:48:08;;;;;;;6.13;3.38;;;;;;;5.15;94.18;100693.59;4977307;28;97333;-42
2021/12/25 00:50:34;;;;;;;7.60;2.97;;;;;;;5.14;94.41;100704.41;4977474;28;96672;-42
2021/12/25 00:52:59;;;;;;;5.63;3.55;;;;;;;5.02;94.41;100687.84;4977366;28;96712;-41
2021/12/25 00:55:25;;;;;;;6.40;3.80;;;;;;;5.05;94.21;100703.84;4976802;28;97883;-41
2021/12/25 00:57:50;;;;;;;6.63;3.80;;;;;;;4.94;94.33;100687.31;4976585;28;97370;-41
2021/12/25 01:00:16;;;;;;;7.88;4.10;;;;;;;4.93;94.25;100698.97;4976592;28;96733;-42
2021/12/25 01:02:44;;;;;;;6.63;3.33;;;;;;;4.96;94.20;100714.97;4976109;28;96805;-42
2021/12/25 01:05:11;;;;;;;8.25;4.57;;;;;;;4.90;94.16;100709.84;4976513;28;97967;-41
2021/12/25 01:07:37;;;;;;;9.45;3.97;;;;;;;4.90;94.38;100707.16;4975202;28;103430;-41
2021/12/25 01:10:07;;;;;;;8.88;4.82;;;;;;;4.77;94.51;100692.50;4975011;28;96720;-41
2021/12/25 01:12:45;;;;;;;7.22;3.67;;;;;;;4.75;94.45;100691.69;4975212;28;96922;-41
2021/12/25 01:15:12;;;;;;;6.07;2.25;;;;;;;4.75;94.23;100705.09;4976501;28;97349;-41
2021/12/25 01:23:43;;;;;;;4.90;3.60;;;;;;;4.58;94.62;100682.50;4976338;28;96508;-42
2021/12/25 01:26:34;;;;;;;4.72;3.25;;;;;;;4.66;94.31;100698.28;4975818;28;98833;-41
2021/12/25 01:32:16;;;;;;;9.88;3.88;;;;;;;4.54;94.43;100710.34;4974412;28;96627;-42
2021/12/25 01:40:16;;;;;;;4.95;2.80;;;;;;;4.32;94.49;100698.72;4976093;28;97784;-41
2021/12/25 01:48:25;;;;;;;7.75;4.30;;;;;;;4.07;94.25;100680.88;4973870;28;97083;-41
2021/12/25 01:51:03;;;;;;;7.80;4.03;;;;;;;4.18;94.51;100702.78;4974423;28;100783;-42
2021/12/25 01:53:29;;;;;;;6.45;4.28;;;;;;;4.14;94.38;100698.47;4976398;28;96911;-41
2021/12/25 01:55:54;;;;;;;6.03;3.33;;;;;;;4.08;94.41;100692.47;4976033;28;96794;-42
2021/12/25 01:58:20;;;;;;;7.00;4.07;;;;;;;4.08;94.37;100697.84;4973981;28;101353;-41
2021/12/25 02:00:49;;;;;;;5.63;2.15;;;;;;;4.14;94.03;100706.50;4975312;28;99654;-41
2021/12/25 02:03:16;;;;;;;0.75;0.65;;;;;;;3.99;93.93;100691.00;4974035;28;96645;-41
2021/12/25 02:05:42;;;;;;;2.33;1.95;;;;;;;3.99;94.03;100686.50;4974763;28;96779;-41
2021/12/25 02:08:07;;;;;;;3.75;3.00;;;;;;;4.01;94.10;100691.81;4975771;28;97839;-41
2021/12/25 02:10:33;;;;;;;9.60;4.75;;;;;;;3.98;93.89;100694.59;4975992;28;97391;-41
2021/12/25 02:12:58;;;;;;;8.95;4.03;;;;;;;3.97;94.19;100691.06;4975588;28;96760;-41
2021/12/25 02:15:26;;;;;;;6.18;3.33;;;;;;;4.09;93.88;100702.25;4976018;28;96777;-41
2021/12/25 02:20:25;;;;;;;4.25;3.05;;;;;;;4.08;93.77;100711.25;4976121;28;97734;-41
2021/12/25 02:22:54;;;;;;;8.93;3.25;;;;;;;3.96;93.59;100705.41;4974354;28;96526;-41
2021/12/25 02:25:22;;;;;;;4.25;3.00;;;;;;;3.87;93.69;100697.69;4975453;28;96789;-41
2021/12/25 02:27:47;;;;;;;4.68;2.80;;;;;;;3.85;93.56;100706.72;4973648;28;100937;-41
2021/12/25 02:30:13;;;;;;;3.95;2.85;;;;;;;3.88;93.75;100723.53;4975167;28;98758;-41
2021/12/25 02:32:42;;;;;;;4.00;2.10;;;;;;;3.86;93.73;100719.16;4974298;28;96581;-41
2021/12/25 02:35:07;;;;;;;5.45;2.75;;;;;;;3.84;93.49;100719.25;4975627;28;96722;-41
2021/12/25 02:37:33;;;;;;;2.28;1.45;;;;;;;3.85;93.22;100717.44;4975415;28;97284;-40
2021/12/25 02:40:13;;;;;;;6.40;2.63;;;;;;;3.82;93.61;100727.31;4975181;28;97668;-41
2021/12/25 02:42:39;;;;;;;3.40;2.17;;;;;;;3.70;93.51;100708.16;4973812;28;96931;-41
2021/12/25 02:45:05;;;;;;;4.20;2.42;;;;;;;3.77;93.66;100725.75;4975556;28;97934;-41
2021/12/25 02:47:31;;;;;;;6.50;3.03;;;;;;;3.78;93.80;100725.66;4974940;28;100413;-41
2021/12/25 02:49:57;;;;;;;6.53;2.30;;;;;;;3.65;93.67;100707.41;4973751;28;101073;-41
2021/12/25 02:52:23;;;;;;;6.43;1.73;;;;;;;3.60;93.54;100710.28;4973534;28;96574;-42
2021/12/25 02:54:49;;;;;;;3.53;1.98;;;;;;;3.60;93.48;100715.63;4973920;28;96755;-41
2021/12/25 02:57:23;;;;;;;5.22;2.75;;;;;;;3.57;93.61;100724.63;4974718;28;99344;-42
2021/12/25 02:59:48;;;;;;;2.42;1.58;;;;;;;3.52;93.38;100720.34;4974280;28;106181;-41
2021/12/25 03:02:16;;;;;;;5.03;2.28;;;;;;;3.58;93.38;100736.22;4975455;28;96434;-41
2021/12/25 03:04:44;;;;;;;5.00;3.40;;;;;;;3.52;93.44;100737.28;4975081;28;96880;-41
2021/12/25 03:07:10;;;;;;;3.88;1.88;;;;;;;3.48;93.38;100734.78;4973429;28;102072;-41
2021/12/25 03:09:37;;;;;;;5.55;2.80;;;;;;;3.50;93.41;100739.16;4972977;28;101232;-41
2021/12/25 03:12:05;;;;;;;5.65;2.92;;;;;;;3.32;93.39;100713.88;4973841;28;96876;-41
2021/12/25 03:14:50;;;;;;;1.90;1.15;;;;;;;3.42;92.99;100741.22;4973714;28;96799;-41
2021/12/25 03:17:16;;;;;;;4.03;1.65;;;;;;;3.34;92.65;100741.50;4973020;28;101036;-41
2021/12/25 03:19:41;;;;;;;2.70;2.08;;;;;;;3.32;92.56;100746.00;4974777;28;97290;-41
2021/12/25 03:22:07;;;;;;;3.58;2.63;;;;;;;3.12;92.93;100724.38;4974904;28;96640;-41
2021/12/25 03:24:32;;;;;;;2.85;1.65;;;;;;;3.34;93.26;100757.56;4975127;28;96746;-41
2021/12/25 03:26:57;;;;;;;2.90;2.30;;;;;;;3.19;92.78;100741.97;4973421;28;127979;-41
2021/12/25 03:29:24;;;;;;;5.78;2.38;;;;;;;3.10;92.51;100740.50;4974683;28;97793;-41
2021/12/25 03:31:50;;;;;;;1.90;1.13;;;;;;;3.11;93.10;100736.00;4974697;28;96627;-41
2021/12/25 03:34:16;;;;;;;2.22;1.95;;;;;;;3.17;92.87;100767.91;4973795;28;96820;-42
2021/12/25 03:36:42;;;;;;;3.33;1.95;;;;;;;3.03;92.67;100756.78;4973247;28;100568;-41
2021/12/25 03:39:08;;;;;;;3.30;2.40;;;;;;;2.92;92.64;100746.44;4974680;28;97003;-41
2021/12/25 03:41:33;;;;;;;1.92;1.50;;;;;;;2.97;91.98;100757.84;4974141;28;96605;-42
2021/12/25 03:44:00;;;;;;;3.70;2.05;;;;;;;3.04;92.71;100771.91;4974820;28;96726;-42
2021/12/25 03:46:31;;;;;;;3.47;1.80;;;;;;;3.05;92.62;100776.34;4973130;28;100941;-41
2021/12/25 03:49:04;;;;;;;3.25;2.22;;;;;;;3.00;92.78;100771.13;4974507;28;98004;-41
2021/12/25 03:59:46;;;;;;;5.57;2.63;;;;;;;2.95;92.67;100792.66;4972570;28;97055;-42
2021/12/25 04:02:19;;;;;;;1.45;1.13;;;;;;;2.81;92.31;100773.50;4973192;28;96546;-42
2021/12/25 04:04:47;;;;;;;3.85;2.17;;;;;;;2.93;92.50;100797.22;4973319;28;96803;-42
2021/12/25 04:07:52;;;;;;;3.08;2.10;;;;;;;2.84;92.18;100785.94;4973712;28;97890;-42
2021/12/25 04:10:13;;;;;;;3.75;2.45;;;;;;;2.74;92.76;100782.63;4974059;28;98652;-42
2021/12/25 04:12:38;;;;;;;6.53;3.40;;;;;;;2.73;92.34;100784.44;4974499;28;96530;-42
2021/12/25 04:15:05;;;;;;;3.35;1.83;;;;;;;2.69;92.50;100785.47;4973432;28;117331;-42
2021/12/25 04:17:30;;;;;;;7.47;3.58;;;;;;;2.70;92.41;100783.66;4972617;28;102516;-42
2021/12/25 04:19:56;;;;;;;6.85;3.05;;;;;;;2.75;92.62;100798.66;4974107;28;126520;-41
2021/12/25 04:22:29;;;;;;;1.77;1.13;;;;;;;2.68;92.30;100796.22;4977556;28;96478;-42
2021/12/25 04:24:55;;;;;;;3.75;2.58;;;;;;;2.74;92.68;100804.94;4976661;28;96738;-42
2021/12/25 04:27:21;;;;;;;6.53;2.58;;;;;;;2.73;92.45;100816.53;4976015;28;98010;-42
2021/12/25 04:29:53;;;;;;;4.20;2.58;;;;;;;2.63;92.16;100806.16;4975823;28;100966;-42
2021/12/25 05:02:14;;;;;;;5.93;2.70;;;;;;;2.44;92.07;100825.41;4974875;28;97042;-41
2021/12/25 05:04:45;;;;;;;6.75;3.60;;;;;;;2.52;92.02;100841.22;4975645;28;96573;-41
2021/12/25 05:07:12;;;;;;;6.07;2.53;;;;;;;2.41;91.90;100821.94;4975858;28;96813;-41
2021/12/25 05:09:38;;;;;;;17.45;5.53;;;;;;;2.46;91.94;100839.63;4976500;28;99726;-41
2021/12/25 05:12:04;;;;;;;6.95;3.97;;;;;;;2.46;91.99;100852.09;4976324;28;97848;-41
2021/12/25 05:14:29;;;;;;;11.35;3.35;;;;;;;2.50;92.02;100851.97;4976711;28;96465;-42
2021/12/25 05:16:54;;;;;;;8.52;4.90;;;;;;;2.45;92.19;100845.84;4976313;28;113030;-41
2021/12/25 05:19:20;;;;;;;3.03;1.67;;;;;;;2.40;91.78;100854.94;4976180;28;101597;-41
2021/12/25 05:21:45;;;;;;;7.10;3.85;;;;;;;2.36;91.83;100843.47;4976593;28;99462;-41
2021/12/25 05:24:11;;;;;;;2.63;1.50;;;;;;;2.35;91.74;100852.38;4974681;28;96689;-42
2021/12/25 05:26:36;;;;;;;6.35;3.25;;;;;;;2.38;92.02;100857.63;4976348;28;96837;-41
2021/12/25 05:29:04;;;;;;;5.53;4.10;;;;;;;2.28;91.58;100837.44;4976451;28;97800;-41
2021/12/25 05:31:33;;;;;;;7.38;3.72;;;;;;;2.35;92.04;100857.75;4974131;28;100822;-41
2021/12/25 05:33:59;;;;;;;8.15;2.92;;;;;;;2.32;92.10;100857.84;4975249;28;96748;-41
2021/12/25 05:36:27;;;;;;;7.65;3.35;;;;;;;2.37;92.11;100868.41;4976451;28;96731;-42
2021/12/25 05:38:57;;;;;;;9.27;2.28;;;;;;;2.35;91.80;100868.44;4974684;28;100861;-41
2021/12/25 05:41:23;;;;;;;7.35;3.05;;;;;;;2.23;91.99;100858.06;4974860;28;101725;-41
2021/12/25 05:43:49;;;;;;;3.97;2.40;;;;;;;2.24;91.53;100867.84;4974680;28;96567;-41
2021/12/25 05:46:14;;;;;;;4.70;2.80;;;;;;;2.22;91.96;100875.03;4975686;28;109381;-41
2021/12/25 05:48:39;;;;;;;3.95;2.60;;;;;;;2.24;91.84;100873.19;4974781;28;121238;-41
2021/12/25 05:51:05;;;;;;;8.95;4.15;;;;;;;2.19;91.52;100864.41;4975128;28;124088;-41
2021/12/25 05:53:32;;;;;;;3.15;1.88;;;;;;;2.16;91.57;100864.50;4976371;28;96637;-41
2021/12/25 05:55:58;;;;;;;3.15;2.05;;;;;;;2.16;90.98;100877.88;4974237;28;97318;-42
2021/12/25 05:58:23;;;;;;;4.35;2.50;;;;;;;2.06;91.39;100877.22;4975586;28;105496;-42
2021/12/25 06:00:48;;;;;;;6.97;4.07;;;;;;;2.01;91.67;100884.50;4974917;28;99493;-41
2021/12/25 06:03:14;;;;;;;3.60;1.98;;;;;;;2.06;91.30;100887.91;4976121;28;96518;-42
2021/12/25 06:05:39;;;;;;;6.03;2.83;;;;;;;2.04;91.38;100884.41;4976314;28;96765;-41
2021/12/25 06:08:05;;;;;;;5.60;1.73;;;;;;;1.99;90.94;100892.53;4975553;28;99409;-42
2021/12/25 06:10:31;;;;;;;8.70;3.28;;;;;;;2.00;91.51;100894.31;4974306;28;100764;-41
2021/12/25 06:13:00;;;;;;;13.25;5.85;;;;;;;1.97;91.39;100897.03;4974079;28;96651;-42
2021/12/25 06:15:26;;;;;;;7.00;3.17;;;;;;;1.86;91.16;100883.06;4975645;28;96715;-41
2021/12/25 06:17:52;;;;;;;6.60;2.90;;;;;;;1.94;91.60;100905.13;4975812;28;97329;-42
2021/12/25 06:20:18;;;;;;;2.97;1.48;;;;;;;1.81;91.16;100887.66;4974194;28;100802;-41
2021/12/25 06:22:44;;;;;;;2.80;1.90;;;;;;;1.79;90.91;100892.16;4974433;28;96746;-43
2021/12/25 06:25:10;;;;;;;5.47;3.28;;;;;;;1.65;91.09;100882.69;4974307;28;96793;-42
2021/12/25 06:27:36;;;;;;;3.38;1.42;;;;;;;1.78;91.22;100893.06;4974043;28;100833;-42
2021/12/25 06:30:04;;;;;;;0.85;0.82;;;;;;;1.73;91.02;100901.19;4974436;28;100657;-42
2021/12/25 06:32:29;;;;;;;9.20;3.13;;;;;;;1.80;91.72;100913.47;4974346;28;96519;-42
2021/12/25 06:34:54;;;;;;;3.38;1.95;;;;;;;1.78;91.14;100906.41;4975472;28;96811;-42
2021/12/25 06:37:20;;;;;;;5.07;2.30;;;;;;;1.78;91.56;100906.41;4974651;28;103768;-42
2021/12/25 06:39:47;;;;;;;3.22;2.72;;;;;;;1.73;91.00;100906.53;4975062;28;99231;-42
2021/12/25 06:42:12;;;;;;;6.80;2.30;;;;;;;1.72;90.66;100907.47;4975200;28;96593;-42
2021/12/25 06:44:38;;;;;;;1.98;1.67;;;;;;;1.71;91.14;100916.38;4975015;28;106278;-42
2021/12/25 06:47:04;;;;;;;5.45;2.33;;;;;;;1.70;90.77;100925.31;4975022;28;98589;-42
2021/12/25 06:49:29;;;;;;;9.63;1.75;;;;;;;1.61;90.89;100912.16;4973688;28;101154;-42
2021/12/25 06:51:55;;;;;;;1.73;0.85;;;;;;;1.68;90.44;100921.78;4975454;28;96509;-43
2021/12/25 06:54:20;;;;;;;3.75;1.88;;;;;;;1.59;90.71;100925.53;4975743;28;96766;-41
2021/12/25 06:56:48;;;;;;;8.20;2.97;;;;;;;1.46;90.63;100913.41;4973693;28;125313;-41
2021/12/25 06:59:14;;;;;;;5.10;2.35;;;;;;;1.39;90.54;100903.78;4974287;28;97796;-42
2021/12/25 07:01:40;;;;;;;5.75;2.72;;;;;;;1.42;90.75;100919.72;4973537;28;96552;-42
2021/12/25 07:04:07;;;;;;;2.63;1.65;;;;;;;1.32;90.13;100920.84;4973848;28;96876;-42
2021/12/25 07:06:33;;;;;;;0.98;0.73;;;;;;;1.32;89.78;100918.19;4973556;28;101209;-42
2021/12/25 07:08:59;;;;;;;2.40;1.17;;;;;;;1.36;89.60;100949.19;4973428;28;101181;-42
2021/12/25 07:11:25;;;;;;;1.30;1.20;;;;;;;1.26;89.95;100936.09;4975421;28;96505;-42
2021/12/25 07:13:51;;;;;;;1.27;1.17;;;;;;;1.38;89.88;100952.72;4975303;28;96745;-42
2021/12/25 07:16:17;;;;;;;1.35;1.02;;;;;;;1.25;89.72;100941.44;4974840;28;97910;-42
2021/12/25 07:18:42;;;;;;;0.55;0.30;;;;;;;1.29;90.39;100935.16;4973727;28;100999;-42
2021/12/25 07:21:08;;;;;;;2.45;1.45;;;;;;;1.38;89.97;100955.38;4975071;28;97296;-42
2021/12/25 07:23:33;;;;;;;1.52;1.02;;;;;;;1.24;89.58;100943.25;4975242;28;96790;-41
2021/12/25 07:26:00;;;;;;;1.10;0.70;;;;;;;1.18;89.55;100939.81;4972886;28;100981;-42
2021/12/25 07:28:26;;;;;;;5.35;1.15;;;;;;;1.32;90.25;100967.09;4973303;28;101130;-41
2021/12/25 07:30:52;;;;;;;1.38;1.17;;;;;;;1.22;90.19;100944.19;4975082;28;96473;-42
2021/12/25 07:33:18;;;;;;;3.80;2.30;;;;;;;1.13;89.69;100947.91;4973464;28;96943;-42
2021/12/25 07:35:44;;;;;;;0.43;0.35;;;;;;;1.02;88.30;100939.25;4972832;28;101317;-42
2021/12/25 07:38:09;;;;;;;0.10;0.10;;;;;;;1.04;89.06;100956.13;4974733;28;97723;-42
2021/12/25 07:40:34;;;;;;;2.45;0.98;;;;;;;0.99;88.56;100960.66;4974870;28;96533;-42
2021/12/25 07:43:09;;;;;;;0.40;0.40;;;;;;;1.08;88.50;100988.94;4974724;28;101844;-42
2021/12/25 07:45:47;;;;;;;1.33;1.08;;;;;;;0.93;88.76;100979.44;4974561;28;97924;-42
2021/12/25 07:48:13;;;;;;;1.55;1.05;;;;;;;0.95;88.82;100991.84;4974113;28;99235;-42
2021/12/25 07:50:40;;;;;;;2.35;1.25;;;;;;;0.85;88.98;100985.81;4974216;28;96541;-42
2021/12/25 07:53:06;;;;;;;2.40;1.65;;;;;;;0.96;89.24;101008.75;4974466;28;96803;-42
2021/12/25 07:55:32;;;;;;;1.35;0.75;;;;;;;0.87;88.04;100999.13;4975961;28;99484;-42
2021/12/25 07:57:59;;;;;;;0.63;0.63;;;;;;;0.88;89.00;101008.00;4977961;28;97865;-42
2021/12/25 08:00:24;;;;;;;4.80;0.93;;;;;;;0.66;87.09;100995.06;4975910;28;97834;-42
2021/12/25 08:02:50;;;;;;;1.15;0.75;;;;;;;0.66;87.22;101005.72;4978138;28;96769;-42
2021/12/25 08:05:15;;;;;;;1.33;0.65;;;;;;;0.63;87.75;101011.13;4977597;28;103363;-42
2021/12/25 08:07:41;;;;;;;0.43;0.40;;;;;;;0.59;86.79;101023.59;4978013;28;97606;-42
2021/12/25 08:10:13;;;;;;;0.47;0.40;;;;;;;0.49;87.36;101011.38;4976557;28;96598;-41
2021/12/25 08:12:43;;;;;;;1.02;0.93;;;;;;;0.46;86.67;101013.22;4977764;28;96647;-42
2021/12/25 08:15:10;;;;;;;0.40;0.38;;;;;;;0.48;87.41;101006.03;4975621;28;101508;-42
2021/12/25 08:17:36;;;;;;;0.68;0.43;;;;;;;0.53;87.66;101006.88;4975982;28;101001;-42
2021/12/25 08:20:01;;;;;;;1.55;1.20;;;;;;;0.51;88.04;101009.56;4977848;28;96636;-42
2021/12/25 08:22:27;;;;;;;1.63;1.23;;;;;;;0.62;87.83;101028.00;4977708;28;96811;-42
2021/12/25 08:24:52;;;;;;;0.77;0.77;;;;;;;0.56;87.82;101026.34;4977345;28;98719;-42
2021/12/25 08:27:18;;;;;;;0.93;0.77;;;;;;;0.54;87.26;101032.59;4976364;28;118499;-42
2021/12/25 08:29:43;;;;;;;0.32;0.30;;;;;;;0.45;87.51;101019.44;4978031;28;96595;-42
2021/12/25 08:32:09;;;;;;;0.75;0.43;;;;;;;0.43;87.38;101040.78;4977589;28;96949;-42
2021/12/25 08:34:42;;;;;;;0.35;0.35;;;;;;;0.30;88.18;101018.78;4977042;28;98869;-42
2021/12/25 08:37:08;;;;;;;1.02;0.47;;;;;;;0.47;87.82;101041.59;4977084;28;97815;-42
2021/12/25 08:39:34;;;;;;;1.55;0.80;;;;;;;0.46;87.73;101039.88;4975621;28;96629;-42
2021/12/25 08:42:03;;;;;;;0.57;0.32;;;;;;;0.34;87.07;101028.50;4977002;28;96802;-42
2021/12/25 08:44:36;;;;;;;0.10;0.10;;;;;;;0.35;86.05;101054.22;4975409;28;100832;-42
2021/12/25 08:47:04;;;;;;;1.48;1.30;;;;;;;0.40;87.69;101062.13;4977171;28;97848;-42
2021/12/25 08:49:31;;;;;;;1.05;0.90;;;;;;;0.39;87.48;101050.59;4975874;28;96554;-42
2021/12/25 08:52:12;;;;;;;0.17;0.17;;;;;;;0.21;87.83;101032.25;4975804;28;96857;-42
2021/12/25 08:54:38;;;;;;;0.82;0.82;;;;;;;0.24;86.78;101066.84;4976933;28;98958;-42
2021/12/25 08:57:05;;;;;;;0.82;0.55;;;;;;;0.07;87.14;101047.56;4975282;28;101126;-43
2021/12/25 08:59:33;;;;;;;0.40;0.20;;;;;;;0.14;87.44;101067.88;4975390;28;96890;-42
2021/12/25 09:01:58;;;;;;;1.10;0.93;;;;;;;0.11;86.17;101078.59;4975726;28;96790;-42
2021/12/25 09:04:23;;;;;;;0.22;0.22;;;;;;;0.02;87.10;101060.06;4976275;28;101498;-42
2021/12/25 09:06:49;;;;;;;0.65;0.25;;;;;;;0.06;86.73;101094.63;4975428;28;98701;-42
2021/12/25 09:09:14;;;;;;;1.75;0.88;;;;;;;0.04;86.51;101095.56;4976002;28;116894;-42
2021/12/25 09:11:41;;;;;;;1.60;0.60;;;;;;;0.01;85.34;101090.28;4976623;28;96775;-42
2021/12/25 09:14:06;;;;;;;2.17;0.88;;;;;;;-0.11;85.05;101076.22;4975091;28;101635;-42
2021/12/25 09:16:32;;;;;;;1.20;1.10;;;;;;;-0.06;86.09;101081.50;4976425;28;97190;-42
2021/12/25 09:18:58;;;;;;;2.15;1.17;;;;;;;-0.07;85.75;101085.94;4975808;28;96785;-42
2021/12/25 09:21:23;;;;;;;0.40;0.17;;;;;;;-0.19;85.90;101055.94;4977188;28;96765;-41
2021/12/25 09:23:49;;;;;;;2.15;1.10;;;;;;;-0.20;86.50;101075.47;4976449;28;97421;-42
2021/12/25 09:26:15;;;;;;;1.63;0.40;;;;;;;-0.29;85.02;101064.03;4975813;28;99114;-42
2021/12/25 09:28:40;;;;;;;12.52;0.85;;;;;;;-0.32;84.66;101076.53;4976135;28;96475;-42
2021/12/25 09:31:08;;;;;;;3.67;0.60;;;;;;;-0.39;85.66;101058.88;4976616;28;96804;-42
2021/12/25 09:33:33;;;;;;;1.67;0.90;;;;;;;-0.28;85.74;101079.13;4975963;28;108498;-42
2021/12/25 09:36:02;;;;;;;0.03;0.03;;;;;;;-0.51;84.79;101047.47;4976066;28;99220;-42
2021/12/25 09:38:28;;;;;;;0.10;0.10;;;;;;;-0.37;84.94;101084.56;4975074;28;96729;-42
2021/12/25 09:40:55;;;;;;;1.20;0.77;;;;;;;-0.44;85.63;101070.44;4976669;28;96810;-42
2021/12/25 09:43:20;;;;;;;0.05;0.05;;;;;;;-0.41;84.97;101074.84;4974453;28;100797;-42
2021/12/25 09:45:46;;;;;;;2.40;1.85;;;;;;;-0.35;85.20;101088.09;4976279;28;106624;-42
2021/12/25 09:48:11;;;;;;;1.17;0.60;;;;;;;-0.31;85.83;101089.81;4976110;28;96678;-42
2021/12/25 09:50:36;;;;;;;0.52;0.52;;;;;;;-0.47;85.26;101073.16;4975232;28;117105;-42
2021/12/25 09:53:07;;;;;;;8.45;5.53;;;;;;;-0.37;85.82;101105.84;4975342;28;99518;-41
2021/12/25 09:55:33;;;;;;;2.00;1.38;;;;;;;-0.50;85.75;101082.94;4974148;28;100879;-42
2021/12/25 09:57:58;;;;;;;0.55;0.43;;;;;;;-0.39;85.24;101109.44;4975970;28;96638;-41
2021/12/25 10:00:24;;;;;;;1.15;1.00;;;;;;;-0.37;85.76;101113.84;4975571;28;96808;-42
2021/12/25 10:02:53;;;;;;;2.13;1.23;;;;;;;-0.41;84.92;101128.06;4975771;28;97929;-42
2021/12/25 10:05:41;;;;;;;0.60;0.57;;;;;;;-0.46;84.72;101124.59;4974321;28;100874;-42
2021/12/25 10:08:11;;;;;;;6.18;3.00;;;;;;;-0.50;84.43;101130.84;4976077;28;96579;-42
2021/12/25 10:10:46;;;;;;;1.27;1.20;;;;;;;-0.52;84.92;101127.34;4976378;28;96730;-42
2021/12/25 10:13:29;;;;;;;0.85;0.65;;;;;;;-0.46;85.44;101127.25;4975495;28;99258;-42
2021/12/25 10:15:57;;;;;;;1.77;1.58;;;;;;;-0.52;85.27;101120.22;4975788;28;97824;-42
2021/12/25 10:18:34;;;;;;;0.88;0.77;;;;;;;-0.50;85.37;101126.41;4973345;28;97717;-42
2021/12/25 10:21:18;;;;;;;1.25;0.75;;;;;;;-0.62;84.66;101094.63;4974531;28;96736;-42
2021/12/25 10:23:44;;;;;;;0.50;0.43;;;;;;;-0.50;85.13;101114.88;4974119;28;101301;-42
2021/12/25 10:26:09;;;;;;;1.35;0.88;;;;;;;-0.60;83.79;101098.13;4975238;28;99271;-42
2021/12/25 10:28:40;;;;;;;1.83;1.08;;;;;;;-0.52;84.86;101116.69;4975741;28;96606;-42
2021/12/25 10:31:16;;;;;;;1.15;0.80;;;;;;;-0.38;85.07;101133.38;4975651;28;96640;-42
2021/12/25 10:33:51;;;;;;;0.70;0.52;;;;;;;-0.31;84.85;101112.88;4975384;28;98954;-42
2021/12/25 10:36:28;;;;;;;3.10;0.90;;;;;;;-0.34;84.21;101108.47;4975517;28;99368;-42
2021/12/25 10:39:18;;;;;;;0.00;0.00;;;;;;;-0.25;83.39;101121.66;4974223;28;96549;-42
2021/12/25 10:42:17;;;;;;;0.90;0.65;;;;;;;-0.10;83.42;101128.56;4974756;28;96800;-41
2021/12/25 10:44:48;;;;;;;0.00;0.00;;;;;;;-0.09;83.44;101103.72;4974556;28;98006;-42
2021/12/25 10:47:32;;;;;;;1.30;0.90;;;;;;;0.17;82.56;101116.66;4973698;28;101455;-42
2021/12/25 10:50:08;;;;;;;1.15;0.43;;;;;;;0.26;81.58;101106.75;4974057;28;96808;-42
2021/12/25 10:52:41;;;;;;;0.22;0.22;;;;;;;0.39;81.31;101085.25;4974147;28;96720;-42
2021/12/25 10:55:25;;;;;;;1.63;1.25;;;;;;;0.57;81.04;101113.41;4975052;28;99470;-42
2021/12/25 10:57:57;;;;;;;2.80;1.00;;;;;;;0.65;81.30;101107.94;4973621;28;101002;-42
2021/12/25 11:00:22;;;;;;;0.80;0.60;;;;;;;1.03;80.29;101117.06;4973463;28;96610;-42
2021/12/25 11:02:55;;;;;;;0.20;0.20;;;;;;;1.11;76.85;101099.13;4975545;28;96796;-42
2021/12/25 11:05:23;;;;;;;0.52;0.30;;;;;;;1.53;77.18;101117.03;4973597;28;100273;-42
2021/12/25 11:08:12;;;;;;;0.00;0.00;;;;;;;1.70;76.83;101118.41;4974829;28;99282;-42
2021/12/25 11:11:17;;;;;;;0.70;0.45;;;;;;;1.69;75.86;101119.34;4973272;28;96650;-42
2021/12/25 11:13:44;;;;;;;0.30;0.30;;;;;;;1.94;75.82;101117.94;4972801;28;96693;-42
2021/12/25 11:16:31;;;;;;;1.02;0.45;;;;;;;2.06;74.60;101098.97;4955895;28;101371;-42
2021/12/25 11:19:09;;;;;;;0.25;0.25;;;;;;;2.45;74.02;101117.66;4973319;28;98793;-42
2021/12/25 11:21:56;;;;;;;0.28;0.20;;;;;;;2.57;71.64;101113.81;4973721;28;96609;-42
2021/12/25 11:24:27;;;;;;;0.77;0.28;;;;;;;1.98;71.07;101077.78;4974815;28;96795;-42
2021/12/25 11:27:06;;;;;;;0.60;0.57;;;;;;;1.85;72.88;101103.00;4973255;28;100745;-42
2021/12/25 11:29:35;;;;;;;0.00;0.00;;;;;;;1.41;73.56;101086.97;4973079;28;101177;-42
2021/12/25 11:32:03;;;;;;;0.28;0.28;;;;;;;1.37;76.45;101098.63;4973631;28;96639;-42
2021/12/25 11:34:29;;;;;;;1.35;0.80;;;;;;;1.24;75.15;101097.09;4974823;28;96795;-42
2021/12/25 11:36:56;;;;;;;0.52;0.40;;;;;;;1.14;76.51;101099.06;4972709;28;100941;-42
2021/12/25 11:39:24;;;;;;;0.00;0.00;;;;;;;0.96;76.24;101086.94;4973021;28;100791;-42
2021/12/25 11:41:55;;;;;;;2.63;0.70;;;;;;;1.04;77.86;101087.69;4973254;28;96666;-42
2021/12/25 11:44:40;;;;;;;0.17;0.17;;;;;;;1.06;77.47;101077.00;4973414;28;96829;-42
2021/12/25 11:47:06;;;;;;;0.05;0.05;;;;;;;1.13;75.57;101075.09;4974676;28;97963;-42
2021/12/25 11:49:32;;;;;;;0.73;0.55;;;;;;;1.67;75.44;101091.78;4973077;28;101138;-42
2021/12/25 11:52:15;;;;;;;1.45;0.85;;;;;;;2.07;71.51;101088.25;4974687;28;96427;-43
2021/12/25 11:54:58;;;;;;;0.03;0.03;;;;;;;2.34;72.93;101069.81;4973602;28;97950;-42
2021/12/25 12:00:34;;;;;;;33.70;18.63;;;;;;;2.37;70.43;101084.91;4979295;28;97055;-43
2021/12/25 12:03:00;;;;;;;43.70;26.35;;;;;;;2.34;70.38;101061.81;4973860;28;96517;-42
2021/12/25 12:05:30;;;;;;;11.38;5.82;;;;;;;2.40;69.51;101068.78;4974656;28;96751;-43
2021/12/25 12:08:07;;;;;;;2.13;0.85;;;;;;;2.64;69.94;101086.00;4974272;28;99627;-43
2021/12/25 12:10:44;;;;;;;1.25;1.10;;;;;;;2.71;70.01;101088.47;4974482;28;97812;-42
2021/12/25 12:13:19;;;;;;;0.35;0.25;;;;;;;2.71;68.41;101069.75;4974290;28;96461;-42
2021/12/25 12:15:50;;;;;;;0.70;0.65;;;;;;;2.63;69.48;101065.53;4973093;28;98679;-43
2021/12/25 12:18:32;;;;;;;1.42;0.43;;;;;;;2.65;69.94;101074.41;4972828;28;100732;-43
2021/12/25 12:21:06;;;;;;;0.17;0.17;;;;;;;2.52;69.48;101037.25;4974618;28;98464;-43
2021/12/25 12:23:53;;;;;;;1.27;0.70;;;;;;;2.89;69.68;101041.66;4973116;28;96648;-42
2021/12/25 12:26:47;;;;;;;0.38;0.22;;;;;;;2.85;70.50;101049.81;4974677;28;96512;-43
2021/12/25 12:29:13;;;;;;;0.50;0.45;;;;;;;2.63;70.62;101044.16;4973492;28;98784;-43
2021/12/25 12:31:43;;;;;;;0.30;0.17;;;;;;;2.51;71.41;101061.38;4973970;28;97358;-43
2021/12/25 12:34:36;;;;;;;0.75;0.65;;;;;;;2.20;71.13;101063.94;4973162;28;96533;-43
2021/12/25 12:37:13;;;;;;;;;;;;;;;2.36;70.88;101041.25;4974408;28;96773;-43
2021/12/25 12:40:03;;;;;;;0.90;0.88;;;;;;;2.39;70.19;101043.84;4973940;28;99207;-42
2021/12/25 12:42:41;;;;;;;0.30;0.28;;;;;;;2.36;70.54;101040.34;4975778;28;99664;-43
2021/12/25 12:45:26;;;;;;;0.60;0.52;;;;;;;2.58;67.68;101030.03;4977288;28;96586;-42
2021/12/25 12:48:17;;;;;;;0.55;0.30;;;;;;;2.91;69.04;101030.94;4976609;28;96760;-43